sensor_id;sensor_type;location;lat;lon;timestamp;P1;durP1;ratioP1;P2;durP2;ratioP2
6133;SDS011;3098;42.678;23.364;2024-02-26T00:01:32;16.20;;;9.65;;
6133;SDS011;3098;42.678;23.364;2024-02-26T00:03:59;17.17;;;9.70;;
6133;SDS011;3098;42.678;23.364;2024-02-26T00:06:27;18.77;;;10.95;;
6133;SDS011;3098;42.678;23.364;2024-02-26T00:08:52;20.05;;;11.52;;
6133;SDS011;3098;42.678;23.364;2024-02-26T00:11:18;20.10;;;10.13;;
6133;SDS011;3098;42.678;23.364;2024-02-26T00:13:43;17.77;;;9.43;;
6133;SDS011;3098;42.678;23.364;2024-02-26T00:16:08;16.23;;;9.75;;
6133;SDS011;3098;42.678;23.364;2024-02-26T00:18:34;15.23;;;9.45;;
6133;SDS011;3098;42.678;23.364;2024-02-26T00:21:00;16.02;;;10.73;;
6133;SDS011;3098;42.678;23.364;2024-02-26T00:23:25;20.70;;;10.63;;
6133;SDS011;3098;42.678;23.364;2024-02-26T00:25:52;22.42;;;12.20;;
6133;SDS011;3098;42.678;23.364;2024-02-26T00:28:18;22.50;;;12.70;;
6133;SDS011;3098;42.678;23.364;2024-02-26T00:30:45;20.13;;;11.70;;
6133;SDS011;3098;42.678;23.364;2024-02-26T00:33:11;19.98;;;12.05;;
6133;SDS011;3098;42.678;23.364;2024-02-26T00:35:37;24.63;;;12.38;;
6133;SDS011;3098;42.678;23.364;2024-02-26T00:38:02;24.05;;;11.40;;
6133;SDS011;3098;42.678;23.364;2024-02-26T00:40:29;22.98;;;12.98;;
6133;SDS011;3098;42.678;23.364;2024-02-26T00:42:54;22.58;;;12.73;;
6133;SDS011;3098;42.678;23.364;2024-02-26T00:45:20;20.90;;;12.93;;
6133;SDS011;3098;42.678;23.364;2024-02-26T00:47:45;19.80;;;12.20;;
6133;SDS011;3098;42.678;23.364;2024-02-26T00:50:12;22.42;;;12.68;;
6133;SDS011;3098;42.678;23.364;2024-02-26T00:52:38;20.27;;;11.55;;
6133;SDS011;3098;42.678;23.364;2024-02-26T00:55:04;21.00;;;12.10;;
6133;SDS011;3098;42.678;23.364;2024-02-26T00:57:31;22.83;;;12.93;;
6133;SDS011;3098;42.678;23.364;2024-02-26T00:59:57;19.98;;;13.05;;
6133;SDS011;3098;42.678;23.364;2024-02-26T01:02:22;25.25;;;12.45;;
6133;SDS011;3098;42.678;23.364;2024-02-26T01:04:48;22.88;;;13.27;;
6133;SDS011;3098;42.678;23.364;2024-02-26T01:07:14;22.08;;;13.32;;
6133;SDS011;3098;42.678;23.364;2024-02-26T01:09:39;21.75;;;12.68;;
6133;SDS011;3098;42.678;23.364;2024-02-26T01:12:05;20.95;;;12.27;;
6133;SDS011;3098;42.678;23.364;2024-02-26T01:14:30;27.85;;;13.23;;
6133;SDS011;3098;42.678;23.364;2024-02-26T01:16:56;20.80;;;12.73;;
6133;SDS011;3098;42.678;23.364;2024-02-26T01:19:21;29.35;;;13.57;;
6133;SDS011;3098;42.678;23.364;2024-02-26T01:21:47;22.88;;;13.63;;
6133;SDS011;3098;42.678;23.364;2024-02-26T01:24:13;24.42;;;13.60;;
6133;SDS011;3098;42.678;23.364;2024-02-26T01:26:38;21.98;;;12.50;;
6133;SDS011;3098;42.678;23.364;2024-02-26T01:29:04;22.13;;;14.13;;
6133;SDS011;3098;42.678;23.364;2024-02-26T01:31:30;28.48;;;16.10;;
6133;SDS011;3098;42.678;23.364;2024-02-26T01:33:55;27.77;;;17.42;;
6133;SDS011;3098;42.678;23.364;2024-02-26T01:36:21;32.45;;;17.75;;
6133;SDS011;3098;42.678;23.364;2024-02-26T01:38:47;27.88;;;16.60;;
6133;SDS011;3098;42.678;23.364;2024-02-26T01:41:13;31.85;;;16.90;;
6133;SDS011;3098;42.678;23.364;2024-02-26T01:43:39;30.77;;;16.85;;
6133;SDS011;3098;42.678;23.364;2024-02-26T01:46:06;32.00;;;19.55;;
6133;SDS011;3098;42.678;23.364;2024-02-26T01:48:36;38.15;;;19.17;;
6133;SDS011;3098;42.678;23.364;2024-02-26T01:51:01;33.47;;;19.15;;
6133;SDS011;3098;42.678;23.364;2024-02-26T01:53:27;38.05;;;20.08;;
6133;SDS011;3098;42.678;23.364;2024-02-26T01:55:53;35.38;;;21.23;;
6133;SDS011;3098;42.678;23.364;2024-02-26T01:58:18;33.97;;;20.30;;
6133;SDS011;3098;42.678;23.364;2024-02-26T02:00:45;33.10;;;18.92;;
6133;SDS011;3098;42.678;23.364;2024-02-26T02:03:11;34.80;;;19.55;;
6133;SDS011;3098;42.678;23.364;2024-02-26T02:05:37;36.50;;;20.30;;
6133;SDS011;3098;42.678;23.364;2024-02-26T02:08:07;32.92;;;19.00;;
6133;SDS011;3098;42.678;23.364;2024-02-26T02:10:36;34.90;;;18.55;;
6133;SDS011;3098;42.678;23.364;2024-02-26T02:13:03;34.33;;;19.65;;
6133;SDS011;3098;42.678;23.364;2024-02-26T02:15:28;28.65;;;17.73;;
6133;SDS011;3098;42.678;23.364;2024-02-26T02:17:54;32.05;;;19.83;;
6133;SDS011;3098;42.678;23.364;2024-02-26T02:20:23;35.70;;;20.73;;
6133;SDS011;3098;42.678;23.364;2024-02-26T02:22:50;36.15;;;20.30;;
6133;SDS011;3098;42.678;23.364;2024-02-26T02:25:16;32.10;;;19.50;;
6133;SDS011;3098;42.678;23.364;2024-02-26T02:27:41;32.60;;;20.17;;
6133;SDS011;3098;42.678;23.364;2024-02-26T02:30:08;33.33;;;19.20;;
6133;SDS011;3098;42.678;23.364;2024-02-26T02:32:35;29.83;;;20.08;;
6133;SDS011;3098;42.678;23.364;2024-02-26T02:35:04;34.67;;;19.67;;
6133;SDS011;3098;42.678;23.364;2024-02-26T02:37:30;34.03;;;20.17;;
6133;SDS011;3098;42.678;23.364;2024-02-26T02:39:56;30.85;;;18.45;;
6133;SDS011;3098;42.678;23.364;2024-02-26T02:42:23;30.67;;;18.92;;
6133;SDS011;3098;42.678;23.364;2024-02-26T02:44:49;32.45;;;20.25;;
6133;SDS011;3098;42.678;23.364;2024-02-26T02:47:14;34.55;;;19.75;;
6133;SDS011;3098;42.678;23.364;2024-02-26T02:49:40;36.60;;;19.02;;
6133;SDS011;3098;42.678;23.364;2024-02-26T02:52:06;33.90;;;19.85;;
6133;SDS011;3098;42.678;23.364;2024-02-26T02:54:31;32.50;;;19.38;;
6133;SDS011;3098;42.678;23.364;2024-02-26T02:56:57;29.92;;;19.10;;
6133;SDS011;3098;42.678;23.364;2024-02-26T02:59:23;32.15;;;18.48;;
6133;SDS011;3098;42.678;23.364;2024-02-26T03:01:48;32.05;;;19.33;;
6133;SDS011;3098;42.678;23.364;2024-02-26T03:04:17;32.20;;;19.90;;
6133;SDS011;3098;42.678;23.364;2024-02-26T03:06:43;32.70;;;20.55;;
6133;SDS011;3098;42.678;23.364;2024-02-26T03:09:08;29.92;;;18.40;;
6133;SDS011;3098;42.678;23.364;2024-02-26T03:11:34;34.22;;;19.77;;
6133;SDS011;3098;42.678;23.364;2024-02-26T03:13:59;33.15;;;19.50;;
6133;SDS011;3098;42.678;23.364;2024-02-26T03:16:25;35.25;;;20.25;;
6133;SDS011;3098;42.678;23.364;2024-02-26T03:18:51;30.88;;;19.35;;
6133;SDS011;3098;42.678;23.364;2024-02-26T03:21:16;33.30;;;19.23;;
6133;SDS011;3098;42.678;23.364;2024-02-26T03:23:43;36.13;;;19.60;;
6133;SDS011;3098;42.678;23.364;2024-02-26T03:26:08;31.92;;;19.48;;
6133;SDS011;3098;42.678;23.364;2024-02-26T03:28:38;30.42;;;18.80;;
6133;SDS011;3098;42.678;23.364;2024-02-26T03:31:04;29.85;;;19.42;;
6133;SDS011;3098;42.678;23.364;2024-02-26T03:33:29;32.90;;;19.38;;
6133;SDS011;3098;42.678;23.364;2024-02-26T03:35:55;30.45;;;17.92;;
6133;SDS011;3098;42.678;23.364;2024-02-26T03:38:20;28.13;;;19.02;;
6133;SDS011;3098;42.678;23.364;2024-02-26T03:40:46;37.08;;;20.80;;
6133;SDS011;3098;42.678;23.364;2024-02-26T03:43:11;35.10;;;20.58;;
6133;SDS011;3098;42.678;23.364;2024-02-26T03:45:37;38.08;;;21.05;;
6133;SDS011;3098;42.678;23.364;2024-02-26T03:48:03;35.90;;;19.92;;
6133;SDS011;3098;42.678;23.364;2024-02-26T03:50:29;34.72;;;20.70;;
6133;SDS011;3098;42.678;23.364;2024-02-26T03:52:54;31.55;;;20.77;;
6133;SDS011;3098;42.678;23.364;2024-02-26T03:55:22;38.38;;;20.83;;
6133;SDS011;3098;42.678;23.364;2024-02-26T03:57:50;33.80;;;21.25;;
6133;SDS011;3098;42.678;23.364;2024-02-26T04:00:17;39.47;;;23.13;;
6133;SDS011;3098;42.678;23.364;2024-02-26T04:02:43;38.72;;;23.55;;
6133;SDS011;3098;42.678;23.364;2024-02-26T04:05:12;35.42;;;21.85;;
6133;SDS011;3098;42.678;23.364;2024-02-26T04:07:39;41.95;;;22.42;;
6133;SDS011;3098;42.678;23.364;2024-02-26T04:10:09;36.95;;;22.55;;
6133;SDS011;3098;42.678;23.364;2024-02-26T04:12:36;39.88;;;22.08;;
6133;SDS011;3098;42.678;23.364;2024-02-26T04:15:07;41.45;;;23.85;;
6133;SDS011;3098;42.678;23.364;2024-02-26T04:17:34;43.90;;;23.95;;
6133;SDS011;3098;42.678;23.364;2024-02-26T04:20:00;36.03;;;22.30;;
6133;SDS011;3098;42.678;23.364;2024-02-26T04:22:25;42.15;;;24.38;;
6133;SDS011;3098;42.678;23.364;2024-02-26T04:24:51;44.03;;;26.30;;
6133;SDS011;3098;42.678;23.364;2024-02-26T04:27:17;48.35;;;27.33;;
6133;SDS011;3098;42.678;23.364;2024-02-26T04:29:42;43.33;;;26.15;;
6133;SDS011;3098;42.678;23.364;2024-02-26T04:32:08;45.47;;;26.02;;
6133;SDS011;3098;42.678;23.364;2024-02-26T04:34:33;45.00;;;25.67;;
6133;SDS011;3098;42.678;23.364;2024-02-26T04:36:59;40.92;;;24.60;;
6133;SDS011;3098;42.678;23.364;2024-02-26T04:39:24;38.80;;;22.65;;
6133;SDS011;3098;42.678;23.364;2024-02-26T04:41:51;33.08;;;18.85;;
6133;SDS011;3098;42.678;23.364;2024-02-26T04:44:16;31.27;;;19.60;;
6133;SDS011;3098;42.678;23.364;2024-02-26T04:46:42;40.35;;;21.63;;
6133;SDS011;3098;42.678;23.364;2024-02-26T04:49:07;35.28;;;20.65;;
6133;SDS011;3098;42.678;23.364;2024-02-26T04:51:33;26.40;;;15.80;;
6133;SDS011;3098;42.678;23.364;2024-02-26T04:53:58;32.65;;;20.52;;
6133;SDS011;3098;42.678;23.364;2024-02-26T04:56:24;29.35;;;17.20;;
6133;SDS011;3098;42.678;23.364;2024-02-26T04:58:50;32.72;;;17.90;;
6133;SDS011;3098;42.678;23.364;2024-02-26T05:01:16;33.90;;;20.98;;
6133;SDS011;3098;42.678;23.364;2024-02-26T05:03:42;32.30;;;20.00;;
6133;SDS011;3098;42.678;23.364;2024-02-26T05:06:08;34.80;;;20.67;;
6133;SDS011;3098;42.678;23.364;2024-02-26T05:08:34;39.97;;;20.55;;
6133;SDS011;3098;42.678;23.364;2024-02-26T05:11:01;37.78;;;20.75;;
6133;SDS011;3098;42.678;23.364;2024-02-26T05:13:28;32.85;;;21.35;;
6133;SDS011;3098;42.678;23.364;2024-02-26T05:15:55;38.60;;;23.05;;
6133;SDS011;3098;42.678;23.364;2024-02-26T05:18:24;39.75;;;22.70;;
6133;SDS011;3098;42.678;23.364;2024-02-26T05:20:50;41.00;;;23.67;;
6133;SDS011;3098;42.678;23.364;2024-02-26T05:23:15;35.45;;;20.88;;
6133;SDS011;3098;42.678;23.364;2024-02-26T05:25:40;37.03;;;22.30;;
6133;SDS011;3098;42.678;23.364;2024-02-26T05:28:06;42.95;;;21.92;;
6133;SDS011;3098;42.678;23.364;2024-02-26T05:30:32;34.17;;;20.40;;
6133;SDS011;3098;42.678;23.364;2024-02-26T05:32:58;40.42;;;22.15;;
6133;SDS011;3098;42.678;23.364;2024-02-26T05:35:23;32.03;;;19.98;;
6133;SDS011;3098;42.678;23.364;2024-02-26T05:37:48;35.25;;;20.42;;
6133;SDS011;3098;42.678;23.364;2024-02-26T05:40:15;35.75;;;21.15;;
6133;SDS011;3098;42.678;23.364;2024-02-26T05:42:40;33.90;;;20.67;;
6133;SDS011;3098;42.678;23.364;2024-02-26T05:45:06;34.15;;;20.00;;
6133;SDS011;3098;42.678;23.364;2024-02-26T05:47:32;35.13;;;20.02;;
6133;SDS011;3098;42.678;23.364;2024-02-26T05:49:58;33.80;;;20.90;;
6133;SDS011;3098;42.678;23.364;2024-02-26T05:52:25;29.60;;;18.15;;
6133;SDS011;3098;42.678;23.364;2024-02-26T05:54:51;33.72;;;19.35;;
6133;SDS011;3098;42.678;23.364;2024-02-26T05:57:17;34.33;;;20.13;;
6133;SDS011;3098;42.678;23.364;2024-02-26T05:59:43;34.95;;;20.48;;
6133;SDS011;3098;42.678;23.364;2024-02-26T06:02:09;32.03;;;19.48;;
6133;SDS011;3098;42.678;23.364;2024-02-26T06:04:35;37.65;;;20.55;;
6133;SDS011;3098;42.678;23.364;2024-02-26T06:07:00;41.00;;;20.55;;
6133;SDS011;3098;42.678;23.364;2024-02-26T06:09:26;34.35;;;20.05;;
6133;SDS011;3098;42.678;23.364;2024-02-26T06:11:52;31.35;;;17.50;;
6133;SDS011;3098;42.678;23.364;2024-02-26T06:14:17;29.42;;;18.15;;
6133;SDS011;3098;42.678;23.364;2024-02-26T06:16:44;32.92;;;17.73;;
6133;SDS011;3098;42.678;23.364;2024-02-26T06:19:09;32.00;;;19.27;;
6133;SDS011;3098;42.678;23.364;2024-02-26T06:21:35;29.85;;;17.77;;
6133;SDS011;3098;42.678;23.364;2024-02-26T06:24:01;31.38;;;18.52;;
6133;SDS011;3098;42.678;23.364;2024-02-26T06:26:27;31.10;;;18.25;;
6133;SDS011;3098;42.678;23.364;2024-02-26T06:28:54;32.25;;;18.27;;
6133;SDS011;3098;42.678;23.364;2024-02-26T06:31:21;31.23;;;18.55;;
6133;SDS011;3098;42.678;23.364;2024-02-26T06:33:48;31.40;;;18.70;;
6133;SDS011;3098;42.678;23.364;2024-02-26T06:36:13;32.55;;;19.83;;
6133;SDS011;3098;42.678;23.364;2024-02-26T06:38:40;36.13;;;19.63;;
6133;SDS011;3098;42.678;23.364;2024-02-26T06:41:06;32.40;;;20.05;;
6133;SDS011;3098;42.678;23.364;2024-02-26T06:43:32;32.03;;;20.35;;
6133;SDS011;3098;42.678;23.364;2024-02-26T06:45:57;30.48;;;19.33;;
6133;SDS011;3098;42.678;23.364;2024-02-26T06:48:24;32.83;;;20.05;;
6133;SDS011;3098;42.678;23.364;2024-02-26T06:50:50;28.98;;;17.13;;
6133;SDS011;3098;42.678;23.364;2024-02-26T06:53:16;34.45;;;18.02;;
6133;SDS011;3098;42.678;23.364;2024-02-26T06:55:42;30.42;;;17.45;;
6133;SDS011;3098;42.678;23.364;2024-02-26T06:58:08;32.65;;;18.52;;
6133;SDS011;3098;42.678;23.364;2024-02-26T07:00:34;29.65;;;19.23;;
6133;SDS011;3098;42.678;23.364;2024-02-26T07:03:00;32.25;;;17.83;;
6133;SDS011;3098;42.678;23.364;2024-02-26T07:05:26;29.02;;;17.45;;
6133;SDS011;3098;42.678;23.364;2024-02-26T07:07:52;28.15;;;17.67;;
6133;SDS011;3098;42.678;23.364;2024-02-26T07:10:18;26.05;;;15.95;;
6133;SDS011;3098;42.678;23.364;2024-02-26T07:12:44;20.25;;;13.02;;
6133;SDS011;3098;42.678;23.364;2024-02-26T07:15:10;25.65;;;15.95;;
6133;SDS011;3098;42.678;23.364;2024-02-26T07:17:35;29.40;;;17.60;;
6133;SDS011;3098;42.678;23.364;2024-02-26T07:20:01;31.08;;;17.70;;
6133;SDS011;3098;42.678;23.364;2024-02-26T07:22:30;26.85;;;18.13;;
6133;SDS011;3098;42.678;23.364;2024-02-26T07:24:56;29.13;;;19.17;;
6133;SDS011;3098;42.678;23.364;2024-02-26T07:27:23;26.52;;;18.08;;
6133;SDS011;3098;42.678;23.364;2024-02-26T07:29:48;30.60;;;17.95;;
6133;SDS011;3098;42.678;23.364;2024-02-26T07:32:14;30.85;;;19.77;;
6133;SDS011;3098;42.678;23.364;2024-02-26T07:34:40;34.33;;;19.73;;
6133;SDS011;3098;42.678;23.364;2024-02-26T07:37:09;38.33;;;20.77;;
6133;SDS011;3098;42.678;23.364;2024-02-26T07:39:35;35.58;;;20.60;;
6133;SDS011;3098;42.678;23.364;2024-02-26T07:42:02;39.15;;;24.08;;
6133;SDS011;3098;42.678;23.364;2024-02-26T07:44:28;72.57;;;50.45;;
6133;SDS011;3098;42.678;23.364;2024-02-26T07:46:54;59.58;;;38.42;;
6133;SDS011;3098;42.678;23.364;2024-02-26T07:49:19;42.78;;;27.85;;
6133;SDS011;3098;42.678;23.364;2024-02-26T07:51:45;40.90;;;24.83;;
6133;SDS011;3098;42.678;23.364;2024-02-26T07:54:11;46.42;;;27.60;;
6133;SDS011;3098;42.678;23.364;2024-02-26T07:56:37;48.40;;;26.88;;
6133;SDS011;3098;42.678;23.364;2024-02-26T07:59:03;40.90;;;24.80;;
6133;SDS011;3098;42.678;23.364;2024-02-26T08:01:28;47.75;;;27.13;;
6133;SDS011;3098;42.678;23.364;2024-02-26T08:03:54;35.28;;;21.25;;
6133;SDS011;3098;42.678;23.364;2024-02-26T08:06:20;39.60;;;22.85;;
6133;SDS011;3098;42.678;23.364;2024-02-26T08:08:46;31.65;;;19.45;;
6133;SDS011;3098;42.678;23.364;2024-02-26T08:11:14;42.25;;;21.92;;
6133;SDS011;3098;42.678;23.364;2024-02-26T08:13:41;32.17;;;20.58;;
6133;SDS011;3098;42.678;23.364;2024-02-26T08:16:06;36.50;;;20.92;;
6133;SDS011;3098;42.678;23.364;2024-02-26T08:18:32;40.60;;;22.63;;
6133;SDS011;3098;42.678;23.364;2024-02-26T08:20:57;37.38;;;22.25;;
6133;SDS011;3098;42.678;23.364;2024-02-26T08:23:24;36.13;;;19.00;;
6133;SDS011;3098;42.678;23.364;2024-02-26T08:25:50;27.45;;;16.80;;
6133;SDS011;3098;42.678;23.364;2024-02-26T08:28:15;25.23;;;15.73;;
6133;SDS011;3098;42.678;23.364;2024-02-26T08:30:42;31.27;;;17.10;;
6133;SDS011;3098;42.678;23.364;2024-02-26T08:33:08;26.63;;;16.95;;
6133;SDS011;3098;42.678;23.364;2024-02-26T08:35:35;30.67;;;17.83;;
6133;SDS011;3098;42.678;23.364;2024-02-26T08:38:00;25.83;;;16.30;;
6133;SDS011;3098;42.678;23.364;2024-02-26T08:40:26;28.92;;;16.63;;
6133;SDS011;3098;42.678;23.364;2024-02-26T08:42:52;32.30;;;16.15;;
6133;SDS011;3098;42.678;23.364;2024-02-26T08:45:17;24.67;;;14.88;;
6133;SDS011;3098;42.678;23.364;2024-02-26T08:47:44;19.15;;;11.52;;
6133;SDS011;3098;42.678;23.364;2024-02-26T08:50:10;28.80;;;14.10;;
6133;SDS011;3098;42.678;23.364;2024-02-26T08:52:37;22.92;;;12.27;;
6133;SDS011;3098;42.678;23.364;2024-02-26T08:55:03;25.35;;;12.60;;
6133;SDS011;3098;42.678;23.364;2024-02-26T08:57:29;22.67;;;12.57;;
6133;SDS011;3098;42.678;23.364;2024-02-26T08:59:58;22.33;;;9.82;;
6133;SDS011;3098;42.678;23.364;2024-02-26T09:02:23;13.52;;;9.13;;
6133;SDS011;3098;42.678;23.364;2024-02-26T09:04:49;17.30;;;9.85;;
6133;SDS011;3098;42.678;23.364;2024-02-26T09:07:18;16.77;;;8.23;;
6133;SDS011;3098;42.678;23.364;2024-02-26T09:09:44;11.95;;;6.35;;
6133;SDS011;3098;42.678;23.364;2024-02-26T09:12:09;11.15;;;5.20;;
6133;SDS011;3098;42.678;23.364;2024-02-26T09:14:35;12.00;;;6.10;;
6133;SDS011;3098;42.678;23.364;2024-02-26T09:17:01;10.95;;;6.32;;
6133;SDS011;3098;42.678;23.364;2024-02-26T09:19:26;10.18;;;6.35;;
6133;SDS011;3098;42.678;23.364;2024-02-26T09:21:55;11.02;;;5.93;;
6133;SDS011;3098;42.678;23.364;2024-02-26T09:24:22;9.80;;;6.13;;
6133;SDS011;3098;42.678;23.364;2024-02-26T09:26:51;10.32;;;6.47;;
6133;SDS011;3098;42.678;23.364;2024-02-26T09:29:17;9.30;;;5.60;;
6133;SDS011;3098;42.678;23.364;2024-02-26T09:31:42;9.60;;;5.38;;
6133;SDS011;3098;42.678;23.364;2024-02-26T09:34:12;8.32;;;5.25;;
6133;SDS011;3098;42.678;23.364;2024-02-26T09:36:37;8.90;;;4.45;;
6133;SDS011;3098;42.678;23.364;2024-02-26T09:39:03;10.38;;;5.18;;
6133;SDS011;3098;42.678;23.364;2024-02-26T09:41:30;8.43;;;4.93;;
6133;SDS011;3098;42.678;23.364;2024-02-26T09:43:56;10.57;;;5.32;;
6133;SDS011;3098;42.678;23.364;2024-02-26T09:46:26;9.13;;;4.88;;
6133;SDS011;3098;42.678;23.364;2024-02-26T09:48:52;11.05;;;5.32;;
6133;SDS011;3098;42.678;23.364;2024-02-26T09:51:17;8.90;;;4.45;;
6133;SDS011;3098;42.678;23.364;2024-02-26T09:53:44;7.45;;;5.90;;
6133;SDS011;3098;42.678;23.364;2024-02-26T09:56:12;7.00;;;4.85;;
6133;SDS011;3098;42.678;23.364;2024-02-26T09:58:38;7.20;;;4.47;;
6133;SDS011;3098;42.678;23.364;2024-02-26T10:01:10;8.15;;;5.38;;
6133;SDS011;3098;42.678;23.364;2024-02-26T10:03:38;10.10;;;5.50;;
6133;SDS011;3098;42.678;23.364;2024-02-26T10:06:09;8.10;;;4.57;;
6133;SDS011;3098;42.678;23.364;2024-02-26T10:08:35;6.95;;;4.15;;
6133;SDS011;3098;42.678;23.364;2024-02-26T10:11:02;5.53;;;4.00;;
6133;SDS011;3098;42.678;23.364;2024-02-26T10:13:28;7.47;;;4.50;;
6133;SDS011;3098;42.678;23.364;2024-02-26T10:15:54;6.88;;;3.90;;
6133;SDS011;3098;42.678;23.364;2024-02-26T10:18:20;6.07;;;4.22;;
6133;SDS011;3098;42.678;23.364;2024-02-26T10:21:00;7.47;;;4.60;;
6133;SDS011;3098;42.678;23.364;2024-02-26T10:23:26;6.15;;;4.20;;
6133;SDS011;3098;42.678;23.364;2024-02-26T10:25:55;5.88;;;4.15;;
6133;SDS011;3098;42.678;23.364;2024-02-26T10:28:22;7.30;;;4.13;;
6133;SDS011;3098;42.678;23.364;2024-02-26T10:30:48;10.07;;;5.15;;
6133;SDS011;3098;42.678;23.364;2024-02-26T10:33:14;6.00;;;5.15;;
6133;SDS011;3098;42.678;23.364;2024-02-26T10:35:44;10.60;;;4.88;;
6133;SDS011;3098;42.678;23.364;2024-02-26T10:38:11;8.82;;;4.35;;
6133;SDS011;3098;42.678;23.364;2024-02-26T10:40:37;8.07;;;4.88;;
6133;SDS011;3098;42.678;23.364;2024-02-26T10:43:02;6.65;;;4.10;;
6133;SDS011;3098;42.678;23.364;2024-02-26T10:45:28;7.00;;;3.65;;
6133;SDS011;3098;42.678;23.364;2024-02-26T10:47:53;8.07;;;4.05;;
6133;SDS011;3098;42.678;23.364;2024-02-26T10:50:19;5.25;;;4.22;;
6133;SDS011;3098;42.678;23.364;2024-02-26T10:52:45;7.13;;;5.70;;
6133;SDS011;3098;42.678;23.364;2024-02-26T10:55:16;7.15;;;4.25;;
6133;SDS011;3098;42.678;23.364;2024-02-26T10:57:45;6.63;;;3.97;;
6133;SDS011;3098;42.678;23.364;2024-02-26T11:00:15;5.45;;;3.88;;
6133;SDS011;3098;42.678;23.364;2024-02-26T11:02:41;5.25;;;3.00;;
6133;SDS011;3098;42.678;23.364;2024-02-26T11:05:09;6.88;;;4.40;;
6133;SDS011;3098;42.678;23.364;2024-02-26T11:07:36;6.88;;;4.00;;
6133;SDS011;3098;42.678;23.364;2024-02-26T11:10:03;5.88;;;3.88;;
6133;SDS011;3098;42.678;23.364;2024-02-26T11:12:30;5.45;;;3.53;;
6133;SDS011;3098;42.678;23.364;2024-02-26T11:14:57;6.95;;;3.20;;
6133;SDS011;3098;42.678;23.364;2024-02-26T11:17:26;7.68;;;4.32;;
6133;SDS011;3098;42.678;23.364;2024-02-26T11:19:55;7.13;;;4.50;;
6133;SDS011;3098;42.678;23.364;2024-02-26T11:22:23;5.65;;;4.10;;
6133;SDS011;3098;42.678;23.364;2024-02-26T11:24:52;4.90;;;3.97;;
6133;SDS011;3098;42.678;23.364;2024-02-26T11:27:19;9.15;;;4.15;;
6133;SDS011;3098;42.678;23.364;2024-02-26T11:29:49;12.02;;;4.53;;
6133;SDS011;3098;42.678;23.364;2024-02-26T11:32:17;6.32;;;4.53;;
6133;SDS011;3098;42.678;23.364;2024-02-26T11:34:43;7.75;;;4.53;;
6133;SDS011;3098;42.678;23.364;2024-02-26T11:37:15;7.10;;;4.45;;
6133;SDS011;3098;42.678;23.364;2024-02-26T11:39:42;7.57;;;4.22;;
6133;SDS011;3098;42.678;23.364;2024-02-26T11:42:13;8.32;;;4.07;;
6133;SDS011;3098;42.678;23.364;2024-02-26T11:44:40;7.50;;;3.80;;
6133;SDS011;3098;42.678;23.364;2024-02-26T11:47:40;6.55;;;4.15;;
6133;SDS011;3098;42.678;23.364;2024-02-26T11:50:00;8.40;;;4.47;;
6133;SDS011;3098;42.678;23.364;2024-02-26T11:58:57;5.78;;;4.03;;
6133;SDS011;3098;42.678;23.364;2024-02-26T12:01:41;4.57;;;3.55;;
6133;SDS011;3098;42.678;23.364;2024-02-26T12:04:26;6.85;;;3.38;;
6133;SDS011;3098;42.678;23.364;2024-02-26T12:06:57;5.65;;;3.40;;
6133;SDS011;3098;42.678;23.364;2024-02-26T12:09:36;7.43;;;4.80;;
6133;SDS011;3098;42.678;23.364;2024-02-26T12:12:06;7.15;;;3.20;;
6133;SDS011;3098;42.678;23.364;2024-02-26T12:14:34;5.65;;;3.88;;
6133;SDS011;3098;42.678;23.364;2024-02-26T12:17:20;5.05;;;3.10;;
6133;SDS011;3098;42.678;23.364;2024-02-26T12:19:47;6.28;;;3.08;;
6133;SDS011;3098;42.678;23.364;2024-02-26T12:22:13;4.53;;;3.63;;
6133;SDS011;3098;42.678;23.364;2024-02-26T12:24:40;5.75;;;4.13;;
6133;SDS011;3098;42.678;23.364;2024-02-26T12:27:09;5.05;;;3.65;;
6133;SDS011;3098;42.678;23.364;2024-02-26T12:29:34;6.32;;;3.58;;
6133;SDS011;3098;42.678;23.364;2024-02-26T12:32:00;5.13;;;2.70;;
6133;SDS011;3098;42.678;23.364;2024-02-26T12:34:26;6.00;;;3.67;;
6133;SDS011;3098;42.678;23.364;2024-02-26T12:36:53;7.70;;;3.42;;
6133;SDS011;3098;42.678;23.364;2024-02-26T12:39:19;7.32;;;3.25;;
6133;SDS011;3098;42.678;23.364;2024-02-26T12:41:45;5.55;;;2.90;;
6133;SDS011;3098;42.678;23.364;2024-02-26T12:44:17;7.30;;;3.42;;
6133;SDS011;3098;42.678;23.364;2024-02-26T12:46:42;6.55;;;2.97;;
6133;SDS011;3098;42.678;23.364;2024-02-26T12:49:08;5.50;;;3.45;;
6133;SDS011;3098;42.678;23.364;2024-02-26T12:51:34;4.82;;;2.53;;
6133;SDS011;3098;42.678;23.364;2024-02-26T12:53:59;5.32;;;3.00;;
6133;SDS011;3098;42.678;23.364;2024-02-26T12:56:26;3.65;;;2.70;;
6133;SDS011;3098;42.678;23.364;2024-02-26T12:58:52;5.03;;;3.00;;
6133;SDS011;3098;42.678;23.364;2024-02-26T13:01:19;5.82;;;2.90;;
6133;SDS011;3098;42.678;23.364;2024-02-26T13:03:48;6.65;;;3.20;;
6133;SDS011;3098;42.678;23.364;2024-02-26T13:06:14;5.35;;;2.80;;
6133;SDS011;3098;42.678;23.364;2024-02-26T13:08:40;5.15;;;2.97;;
6133;SDS011;3098;42.678;23.364;2024-02-26T13:11:06;4.25;;;2.80;;
6133;SDS011;3098;42.678;23.364;2024-02-26T13:13:32;4.68;;;3.20;;
6133;SDS011;3098;42.678;23.364;2024-02-26T13:16:01;5.90;;;3.05;;
6133;SDS011;3098;42.678;23.364;2024-02-26T13:18:33;4.97;;;2.95;;
6133;SDS011;3098;42.678;23.364;2024-02-26T13:23:54;8.57;;;2.40;;
6133;SDS011;3098;42.678;23.364;2024-02-26T13:26:21;6.53;;;3.85;;
6133;SDS011;3098;42.678;23.364;2024-02-26T13:28:58;5.88;;;3.50;;
6133;SDS011;3098;42.678;23.364;2024-02-26T13:31:28;5.97;;;2.70;;
6133;SDS011;3098;42.678;23.364;2024-02-26T13:33:54;5.57;;;2.85;;
6133;SDS011;3098;42.678;23.364;2024-02-26T13:36:21;7.75;;;3.70;;
6133;SDS011;3098;42.678;23.364;2024-02-26T13:38:51;5.13;;;3.45;;
6133;SDS011;3098;42.678;23.364;2024-02-26T13:41:20;4.78;;;2.95;;
6133;SDS011;3098;42.678;23.364;2024-02-26T13:43:46;7.70;;;3.35;;
6133;SDS011;3098;42.678;23.364;2024-02-26T13:46:13;4.28;;;2.92;;
6133;SDS011;3098;42.678;23.364;2024-02-26T13:48:41;4.25;;;2.63;;
6133;SDS011;3098;42.678;23.364;2024-02-26T13:51:07;5.57;;;2.88;;
6133;SDS011;3098;42.678;23.364;2024-02-26T13:53:33;5.18;;;2.95;;
6133;SDS011;3098;42.678;23.364;2024-02-26T13:55:58;110.03;;;9.13;;
6133;SDS011;3098;42.678;23.364;2024-02-26T13:58:26;6.68;;;3.33;;
6133;SDS011;3098;42.678;23.364;2024-02-26T14:00:55;6.22;;;2.83;;
6133;SDS011;3098;42.678;23.364;2024-02-26T14:03:21;5.32;;;3.00;;
6133;SDS011;3098;42.678;23.364;2024-02-26T14:05:47;5.80;;;3.03;;
6133;SDS011;3098;42.678;23.364;2024-02-26T14:08:13;8.68;;;2.95;;
6133;SDS011;3098;42.678;23.364;2024-02-26T14:10:40;5.18;;;2.70;;
6133;SDS011;3098;42.678;23.364;2024-02-26T14:13:05;6.05;;;2.92;;
6133;SDS011;3098;42.678;23.364;2024-02-26T14:15:32;3.63;;;2.78;;
6133;SDS011;3098;42.678;23.364;2024-02-26T14:18:00;6.28;;;2.85;;
6133;SDS011;3098;42.678;23.364;2024-02-26T14:20:29;4.75;;;2.92;;
6133;SDS011;3098;42.678;23.364;2024-02-26T14:22:54;8.13;;;3.03;;
6133;SDS011;3098;42.678;23.364;2024-02-26T14:25:21;4.68;;;2.25;;
6133;SDS011;3098;42.678;23.364;2024-02-26T14:27:49;6.30;;;2.80;;
6133;SDS011;3098;42.678;23.364;2024-02-26T14:30:15;6.53;;;3.15;;
6133;SDS011;3098;42.678;23.364;2024-02-26T14:32:41;5.43;;;2.88;;
6133;SDS011;3098;42.678;23.364;2024-02-26T14:35:07;3.40;;;2.35;;
6133;SDS011;3098;42.678;23.364;2024-02-26T14:37:34;6.55;;;2.70;;
6133;SDS011;3098;42.678;23.364;2024-02-26T14:40:01;5.68;;;2.63;;
6133;SDS011;3098;42.678;23.364;2024-02-26T14:42:30;6.40;;;2.67;;
6133;SDS011;3098;42.678;23.364;2024-02-26T14:44:56;4.63;;;2.55;;
6133;SDS011;3098;42.678;23.364;2024-02-26T14:47:22;4.40;;;2.80;;
6133;SDS011;3098;42.678;23.364;2024-02-26T14:49:50;6.90;;;2.92;;